Aérodrome :
LOGIN :

S'inscrire | Disclaimer

   EN    FR    IT 

 










Légende :    VFR   VFR Marginal   IFR   IFR Intensif   IFR Très Intensif
Visi : 
Plafond : 
>= 8 km
>= 3000ft
5 à 8 km
1000 à 3000 ft
1500m à 5 km
500 à 1000 ft
800 à 1500m
200 à 500 ft
< 800m
< 200 ft
Symboles :   Orages  Brouillard  Fortes neiges  Fortes précipitations  Vent > 20 kt
SIGMETs :   Divers  Orages  Givrage  Turbulence  Onde Orograph.  Cendres Volcan.







- Altitude de l'aérodrome : 788 ft
- Code IATA : DCM
- Voir les cartes d'approche


LFCK - Castres-Mazamet

DERNIER METAR :
  • 131500Z AUTO 19004KT 150V210 6000 -RA BKN021 OVC028 07/06 Q1006 TEMPO 2000 RA BKN005

METARs EXPIRÉS :
  • 131430Z AUTO 16006KT 8000 -RA BKN021 BKN034 OVC046 07/06 Q1006 TEMPO 2000 RA BKN005 BECMG 11015G25KT
  • 131400Z AUTO 16006KT 9000 -RA BKN033 OVC046 07/06 Q1006 TEMPO 2000 RA BKN005 BECMG 11015G25KT
  • 131330Z AUTO 15004KT 110V190 8000 -RA FEW024 OVC039 07/06 Q1006 TEMPO 2000 RA BKN005 BECMG 11015G25KT
  • 131300Z AUTO VRB03KT 7000 -RA FEW023/// OVC040/// ///TCU 07/06 Q1006 TEMPO 2000 RA BKN005 BECMG 11015G25KT
  • 131230Z AUTO 09004KT 040V150 9000 -RA BKN023 OVC045 08/06 Q1007 TEMPO 2000 RA BKN005 BECMG 11015G25KT
  • 131200Z AUTO 10007KT 9999 -RA SCT024 BKN047 BKN056 08/06 Q1007 TEMPO 2000 RA BKN005 BECMG 11015G25KT

TAF TAF LFCK
Valide du 13 à 15h jusqu'au 14 à 00h UTC


131400Z 1315/1324 16006KT 9999 BKN030 OVC040
TEMPO 1315/1324 2000 RA BKN005
Pas de NOTAMs connus pour ce terrain.



MET'MAP, la Météo Aéronautique d'un coup d'oeil ! - Copyright ORBIFLY Décembre 2007 - Disclaimer

ORBIFLY MET'MAP TEAM :

Programmation & Développement : Alexandra Zaïnal
Conception & Développement : Baudouin d'Aumeries
Co-Programmation & Développement : Marc-Olivier Méhu
Soutien technique & logistique : Manuel Goepfert

Contact : metmap@orbifly.com




SOURCES & CREDITS :

   NOAA